Time;durP1;ratioP1;P1;durP2;ratioP2;P2;SDS_P1;SDS_P2;PMS_P1;PMS_P2;Temp;Humidity;BMP_temperature;BMP_pressure;BME280_temperature;BME280_humidity;BME280_pressure;Samples;Min_cycle;Max_cycle;Signal;HPM_P1;HPM_P2
2021/12/08 00:01:26;;;;;;;1.20;1.00;;;-2.30;99.90;;;;;;5025830;28;20469;-56
2021/12/08 00:03:54;;;;;;;1.93;1.17;;;-2.00;99.90;;;;;;5059399;22;20496;-77
2021/12/08 00:06:22;;;;;;;0.90;0.80;;;-1.70;99.90;;;;;;5045903;28;20668;-77
2021/12/08 00:09:01;;;;;;;0.70;0.70;;;-1.60;99.90;;;;;;5035738;28;20562;-78
2021/12/08 00:14:13;;;;;;;0.60;0.50;;;-1.50;99.90;;;;;;5025886;28;20552;-77
2021/12/08 00:16:42;;;;;;;0.50;0.50;;;-1.40;99.90;;;;;;5028261;28;20890;-77
2021/12/08 00:19:09;;;;;;;0.70;0.67;;;-1.40;99.90;;;;;;5024562;28;21225;-77
2021/12/08 00:21:36;;;;;;;1.00;0.70;;;-1.40;99.90;;;;;;5029101;28;20731;-77
2021/12/08 00:24:03;;;;;;;0.77;0.73;;;-1.40;99.90;;;;;;5029124;28;20566;-77
2021/12/08 00:26:30;;;;;;;1.10;0.80;;;-1.40;99.90;;;;;;5024702;28;20446;-77
2021/12/08 00:28:57;;;;;;;0.73;0.73;;;-1.30;99.90;;;;;;5032648;28;20500;-78
2021/12/08 00:31:24;;;;;;;0.90;0.70;;;-1.30;99.90;;;;;;5037104;28;20474;-78
2021/12/08 00:33:52;;;;;;;0.60;0.60;;;-1.80;99.90;;;;;;5026902;28;20520;-77
2021/12/08 00:36:27;;;;;;;0.63;0.60;;;-2.50;99.90;;;;;;5027509;28;20489;-77
2021/12/08 00:38:54;;;;;;;0.90;0.90;;;-2.10;99.90;;;;;;5027051;28;20847;-77
2021/12/08 00:41:21;;;;;;;1.07;0.87;;;-2.90;99.90;;;;;;5029931;28;20485;-78
2021/12/08 00:43:48;;;;;;;2.00;1.50;;;-2.50;99.90;;;;;;5021323;28;21144;-77
2021/12/08 00:46:15;;;;;;;3.43;1.77;;;-2.20;99.90;;;;;;5027785;28;20943;-78
2021/12/08 00:48:48;;;;;;;1.20;1.10;;;-3.40;99.90;;;;;;5028104;28;20530;-77
2021/12/08 00:51:17;;;;;;;1.50;0.90;;;-3.70;99.90;;;;;;5026170;28;20653;-77
2021/12/08 00:53:45;;;;;;;3.40;0.90;;;-3.10;99.90;;;;;;5028790;28;20438;-77
2021/12/08 00:56:12;;;;;;;1.63;0.60;;;-3.40;99.90;;;;;;5027186;28;20966;-77
2021/12/08 00:58:39;;;;;;;0.90;0.90;;;-2.90;99.90;;;;;;5027118;28;20932;-78
2021/12/08 01:01:07;;;;;;;0.60;0.60;;;-2.60;99.90;;;;;;5024048;28;21156;-77
2021/12/08 01:03:34;;;;;;;2.90;1.13;;;-2.40;99.90;;;;;;5024409;28;21117;-77
2021/12/08 01:06:02;;;;;;;5.00;1.20;;;-2.10;99.90;;;;;;5027218;28;20872;-78
2021/12/08 01:08:31;;;;;;;1.77;1.67;;;-2.00;99.90;;;;;;5024123;28;20498;-77
2021/12/08 01:11:04;;;;;;;1.50;1.40;;;-1.80;99.90;;;;;;5027266;28;20447;-78
2021/12/08 01:13:31;;;;;;;1.00;0.90;;;-1.70;99.90;;;;;;5028117;28;20517;-77
2021/12/08 01:15:59;;;;;;;0.97;0.70;;;-1.60;99.90;;;;;;5023064;28;20535;-78
2021/12/08 01:18:28;;;;;;;0.50;0.50;;;-1.60;99.90;;;;;;5026707;28;21076;-77
2021/12/08 01:20:57;;;;;;;1.40;1.10;;;-1.50;99.90;;;;;;5026032;28;20905;-77
2021/12/08 01:23:24;;;;;;;3.73;3.43;;;-1.40;99.90;;;;;;5029549;28;20474;-77
2021/12/08 01:25:53;;;;;;;2.30;2.10;;;-1.40;99.90;;;;;;5024885;28;20544;-77
2021/12/08 01:28:21;;;;;;;1.90;1.10;;;-1.30;99.90;;;;;;5025821;28;20594;-77
2021/12/08 01:30:49;;;;;;;2.13;1.63;;;-1.30;99.90;;;;;;5026284;28;20826;-77
2021/12/08 01:33:16;;;;;;;2.93;2.70;;;-1.30;99.90;;;;;;5025730;28;20973;-78
2021/12/08 01:35:44;;;;;;;1.07;0.97;;;-2.30;99.90;;;;;;5027486;28;20556;-77
2021/12/08 01:38:11;;;;;;;1.13;1.03;;;-3.00;99.90;;;;;;5025910;28;20541;-77
2021/12/08 01:40:38;;;;;;;1.30;1.10;;;-3.20;99.90;;;;;;5025140;28;20525;-77
2021/12/08 01:43:12;;;;;;;1.07;0.63;;;-2.70;99.90;;;;;;5024793;28;20533;-77
2021/12/08 01:45:59;;;;;;;2.50;2.30;;;-2.30;99.90;;;;;;5024028;28;20486;-77
2021/12/08 01:48:30;;;;;;;4.13;3.73;;;-2.00;99.90;;;;;;5026877;28;20986;-78
2021/12/08 01:51:01;;;;;;;4.97;4.47;;;-1.80;99.90;;;;;;5024280;28;20438;-78
2021/12/08 01:53:28;;;;;;;6.93;4.80;;;-2.50;99.90;;;;;;5029085;28;20533;-78
2021/12/08 01:55:56;;;;;;;6.40;5.43;;;-4.50;99.90;;;;;;5027733;28;20557;-78
2021/12/08 01:58:25;;;;;;;3.27;2.97;;;-4.50;99.90;;;;;;5026863;28;20494;-78
2021/12/08 02:00:55;;;;;;;1.87;1.53;;;-4.30;99.90;;;;;;5025815;28;20941;-77
2021/12/08 02:03:24;;;;;;;2.27;1.47;;;-4.30;99.90;;;;;;5025250;28;20970;-77
2021/12/08 02:05:52;;;;;;;3.63;2.70;;;-4.30;99.90;;;;;;5022896;28;20478;-78
2021/12/08 02:08:20;;;;;;;2.10;1.87;;;-3.90;99.90;;;;;;5028216;28;20494;-77
2021/12/08 02:10:47;;;;;;;2.33;2.13;;;-3.90;99.90;;;;;;5024356;28;20478;-77
2021/12/08 02:13:15;;;;;;;2.30;1.70;;;-4.60;99.90;;;;;;5032288;28;20445;-78
2021/12/08 02:15:44;;;;;;;3.80;1.87;;;-4.80;99.90;;;;;;5022086;28;20485;-77
2021/12/08 02:18:15;;;;;;;1.70;1.60;;;-4.40;99.90;;;;;;5026346;28;20540;-77
2021/12/08 02:20:43;;;;;;;2.20;2.10;;;-3.90;99.90;;;;;;5028871;28;20489;-77
2021/12/08 02:23:12;;;;;;;3.50;2.20;;;-3.60;99.90;;;;;;5026484;28;20855;-77
2021/12/08 02:25:39;;;;;;;1.73;1.63;;;-3.20;99.90;;;;;;5030938;28;21175;-78
2021/12/08 02:28:09;;;;;;;1.60;1.50;;;-3.30;99.90;;;;;;5025382;28;20916;-78
2021/12/08 02:30:42;;;;;;;2.10;1.90;;;-3.00;99.90;;;;;;5031890;28;21099;-78
2021/12/08 02:47:11;;;;;;;2.60;2.07;;;-2.60;99.90;;;;;;5029697;28;20418;-77
2021/12/08 02:49:39;;;;;;;1.63;1.53;;;-2.50;99.90;;;;;;5023742;28;20835;-78
2021/12/08 02:52:08;;;;;;;1.87;1.30;;;-2.50;99.90;;;;;;5022168;28;20546;-77
2021/12/08 02:54:39;;;;;;;2.50;1.30;;;-3.50;99.90;;;;;;5026484;28;20482;-77
2021/12/08 02:57:07;;;;;;;2.23;1.37;;;-4.10;99.90;;;;;;5021738;28;20922;-78
2021/12/08 02:59:34;;;;;;;1.80;1.07;;;-4.40;99.90;;;;;;5023663;28;20545;-77
2021/12/08 03:02:01;;;;;;;2.03;1.27;;;-3.90;99.90;;;;;;5028062;28;20474;-77
2021/12/08 03:04:29;;;;;;;2.93;1.53;;;-3.40;99.90;;;;;;5021445;28;20513;-77
2021/12/08 03:06:56;;;;;;;3.57;2.63;;;-3.20;99.90;;;;;;5026937;28;20478;-77
2021/12/08 03:09:23;;;;;;;2.90;2.70;;;-2.90;99.90;;;;;;5027800;28;20550;-77
2021/12/08 03:11:56;;;;;;;3.40;3.10;;;-2.80;99.90;;;;;;5030916;28;20469;-77
2021/12/08 03:14:28;;;;;;;3.70;3.40;;;-4.10;99.90;;;;;;5026239;28;20550;-78
2021/12/08 03:16:58;;;;;;;3.97;2.63;;;-4.60;99.90;;;;;;5023863;28;20470;-78
2021/12/08 03:19:26;;;;;;;5.00;4.60;;;-4.00;99.90;;;;;;5023588;28;20553;-78
2021/12/08 03:21:54;;;;;;;6.50;5.30;;;-4.40;99.90;;;;;;5026557;28;20453;-77
2021/12/08 03:24:26;;;;;;;3.07;2.10;;;-4.30;99.90;;;;;;5027561;28;20482;-78
2021/12/08 03:27:07;;;;;;;2.73;2.17;;;-3.80;99.90;;;;;;5029350;28;20463;-78
2021/12/08 03:29:45;;;;;;;4.90;4.40;;;-3.30;99.90;;;;;;5024704;28;20495;-78
2021/12/08 03:32:16;;;;;;;12.33;8.87;;;-2.90;99.90;;;;;;5028146;28;20446;-77
2021/12/08 03:34:51;;;;;;;5.30;4.70;;;-2.60;99.90;;;;;;5021628;28;20448;-78
2021/12/08 03:37:18;;;;;;;3.43;2.40;;;-2.30;99.90;;;;;;5026300;28;20668;-78
2021/12/08 03:39:45;;;;;;;2.90;2.60;;;-2.80;99.90;;;;;;5026289;28;21054;-78
2021/12/08 03:42:14;;;;;;;2.93;2.70;;;-2.50;99.90;;;;;;5028214;28;20478;-78
2021/12/08 03:44:41;;;;;;;3.00;2.80;;;-2.20;99.90;;;;;;5027134;28;20519;-78
2021/12/08 03:47:14;;;;;;;5.10;4.17;;;-1.90;99.90;;;;;;5030388;28;20499;-77
2021/12/08 03:49:42;;;;;;;2.60;2.37;;;-1.80;99.90;;;;;;5023190;28;20498;-78
2021/12/08 03:52:09;;;;;;;3.93;1.63;;;-1.60;99.90;;;;;;5022842;28;20980;-78
2021/12/08 03:54:35;;;;;;;5.27;3.83;;;-1.50;99.90;;;;;;5030386;28;20469;-78
2021/12/08 03:57:03;;;;;;;4.03;3.73;;;-1.30;99.90;;;;;;5025815;28;20473;-78
2021/12/08 03:59:31;;;;;;;7.60;5.43;;;-1.20;99.90;;;;;;5019131;28;20604;-78
2021/12/08 04:01:58;;;;;;;7.23;5.97;;;-1.00;99.90;;;;;;5025441;28;20531;-78
2021/12/08 04:04:28;;;;;;;5.00;4.50;;;-0.90;99.90;;;;;;5025714;28;20732;-78
2021/12/08 04:06:57;;;;;;;6.80;6.20;;;-0.80;99.90;;;;;;5032748;28;20510;-78
2021/12/08 04:09:31;;;;;;;3.57;3.27;;;-0.80;99.90;;;;;;5025112;28;20753;-78
2021/12/08 04:11:59;;;;;;;2.87;2.67;;;-0.70;99.90;;;;;;5022420;28;20483;-78
2021/12/08 04:14:29;;;;;;;3.40;3.10;;;-0.70;99.90;;;;;;5027896;28;20758;-78
2021/12/08 04:17:02;;;;;;;5.90;3.87;;;-1.70;99.90;;;;;;5024747;28;20542;-78
2021/12/08 04:19:30;;;;;;;3.57;3.27;;;-2.70;99.90;;;;;;5026760;28;20505;-78
2021/12/08 04:22:02;;;;;;;3.33;2.97;;;-2.40;99.90;;;;;;5020640;28;20474;-78
2021/12/08 04:24:29;;;;;;;3.80;3.50;;;-2.10;99.90;;;;;;5024567;28;20479;-78
2021/12/08 04:27:00;;;;;;;4.70;3.40;;;-1.70;99.90;;;;;;5024421;28;20477;-78
2021/12/08 04:29:30;;;;;;;2.47;2.07;;;-1.40;99.90;;;;;;5028633;28;20532;-78
2021/12/08 04:32:01;;;;;;;3.33;3.03;;;-1.20;99.90;;;;;;5023065;28;21031;-78
2021/12/08 04:34:32;;;;;;;3.80;3.50;;;-1.00;99.90;;;;;;5026783;28;20462;-78
2021/12/08 04:37:07;;;;;;;4.03;3.73;;;-0.80;99.90;;;;;;5025422;28;20495;-78
2021/12/08 04:39:45;;;;;;;3.20;3.00;;;-0.70;99.90;;;;;;5027174;28;20480;-78
2021/12/08 04:42:17;;;;;;;7.70;6.87;;;-0.60;99.90;;;;;;5026561;28;20499;-78
2021/12/08 04:44:49;;;;;;;4.40;3.53;;;-0.50;99.90;;;;;;5025355;28;20908;-78
2021/12/08 04:47:31;;;;;;;3.00;2.70;;;-1.00;99.90;;;;;;5029858;28;20456;-78
2021/12/08 04:50:35;;;;;;;4.33;2.63;;;-0.80;99.90;;;;;;5020955;28;20462;-78
2021/12/08 04:53:10;;;;;;;4.30;2.60;;;-0.70;99.90;;;;;;5029035;28;20500;-78
2021/12/08 05:04:26;;;;;;;9.80;7.40;;;-0.20;99.90;;;;;;5024170;28;20503;-78
2021/12/08 05:07:14;;;;;;;2.27;1.33;;;-0.20;99.90;;;;;;5028708;28;20434;-78
2021/12/08 05:09:43;;;;;;;2.43;1.50;;;-0.20;99.90;;;;;;5021840;28;20475;-78
2021/12/08 05:12:12;;;;;;;2.30;1.87;;;-0.20;99.90;;;;;;5028203;28;20481;-78
2021/12/08 05:14:48;;;;;;;3.93;2.83;;;-0.10;99.90;;;;;;5031011;28;20931;-78
2021/12/08 05:17:19;;;;;;;3.77;2.77;;;-0.10;99.90;;;;;;5030464;28;20506;-78
2021/12/08 05:19:50;;;;;;;3.40;3.17;;;-0.10;99.90;;;;;;5040139;28;20497;-78
2021/12/08 05:22:20;;;;;;;3.67;2.60;;;-1.30;99.90;;;;;;5029053;28;20467;-78
2021/12/08 05:24:53;;;;;;;2.17;1.97;;;-2.30;99.90;;;;;;5036243;28;20563;-78
2021/12/08 05:27:25;;;;;;;2.97;2.77;;;-2.40;99.90;;;;;;5026158;28;20451;-78
2021/12/08 05:29:56;;;;;;;3.80;3.30;;;-2.30;99.90;;;;;;5027487;28;20472;-78
2021/12/08 05:32:23;;;;;;;3.43;2.70;;;-2.20;99.90;;;;;;5029722;28;20531;-78
2021/12/08 05:34:52;;;;;;;4.00;2.97;;;-1.80;99.90;;;;;;5025214;28;20530;-78
2021/12/08 05:37:23;;;;;;;5.53;4.67;;;-1.40;99.90;;;;;;5021636;28;20484;-78
2021/12/08 05:39:50;;;;;;;3.90;3.57;;;-1.20;99.90;;;;;;5027505;28;20492;-78
2021/12/08 05:42:21;;;;;;;4.37;4.00;;;-1.30;99.90;;;;;;5030861;28;20484;-78
2021/12/08 05:44:49;;;;;;;5.60;4.93;;;-1.50;99.90;;;;;;5021468;28;20470;-78
2021/12/08 05:47:22;;;;;;;4.63;4.23;;;-1.80;99.90;;;;;;5027236;28;20978;-79
2021/12/08 05:49:51;;;;;;;5.30;4.80;;;-1.80;99.90;;;;;;5059141;22;20597;-51
2021/12/08 05:52:18;;;;;;;9.23;7.03;;;-1.50;99.90;;;;;;5046928;28;20470;-52
2021/12/08 05:54:47;;;;;;;10.03;5.77;;;-1.20;99.90;;;;;;5028842;28;21089;-50
2021/12/08 05:57:16;;;;;;;8.13;6.43;;;-1.00;99.90;;;;;;5025663;28;20481;-53
2021/12/08 05:59:44;;;;;;;11.10;9.00;;;-0.80;99.90;;;;;;5023009;28;20530;-51
2021/12/08 06:02:15;;;;;;;6.00;5.47;;;-0.70;99.90;;;;;;5060990;23;20934;-84
2021/12/08 06:04:43;;;;;;;7.93;6.00;;;-0.60;99.90;;;;;;5044699;28;20947;-84
2021/12/08 06:07:12;;;;;;;6.00;5.40;;;-0.40;99.90;;;;;;5041677;28;20482;-83
2021/12/08 06:09:40;;;;;;;6.30;5.70;;;-0.60;99.90;;;;;;5033038;28;20466;-84
2021/12/08 06:12:10;;;;;;;8.47;5.70;;;-0.90;99.90;;;;;;5024693;28;20872;-83
2021/12/08 06:14:37;;;;;;;11.57;7.40;;;-0.60;99.90;;;;;;5030136;28;20472;-83
2021/12/08 06:17:07;;;;;;;8.33;6.33;;;-0.50;99.90;;;;;;5028420;28;20960;-84
2021/12/08 06:19:36;;;;;;;8.00;7.27;;;-0.40;99.90;;;;;;5030512;28;21045;-84
2021/12/08 06:22:04;;;;;;;4.50;3.70;;;-0.80;99.90;;;;;;5029324;28;20550;-83
2021/12/08 06:24:33;;;;;;;5.03;4.03;;;-1.90;99.90;;;;;;5031518;28;20478;-84
2021/12/08 06:27:00;;;;;;;3.37;3.07;;;-2.30;99.90;;;;;;5024097;28;20507;-83
2021/12/08 06:29:27;;;;;;;5.67;3.50;;;-2.30;99.90;;;;;;5025764;28;20510;-83
2021/12/08 06:31:58;;;;;;;3.47;3.20;;;-2.20;99.90;;;;;;5032531;28;20554;-84
2021/12/08 06:34:26;;;;;;;4.87;4.30;;;-1.70;99.90;;;;;;5022708;28;20492;-83
2021/12/08 06:36:57;;;;;;;4.50;3.90;;;-1.30;99.90;;;;;;5029357;28;20465;-84
2021/12/08 06:39:28;;;;;;;4.00;3.70;;;-0.90;99.90;;;;;;5030562;28;20490;-84
2021/12/08 06:42:00;;;;;;;10.60;9.70;;;-0.70;99.90;;;;;;5031682;28;20508;-83
2021/12/08 06:44:30;;;;;;;16.00;14.30;;;-0.50;99.90;;;;;;5028192;28;20891;-84
2021/12/08 06:46:58;;;;;;;7.80;7.10;;;-0.50;99.90;;;;;;5030106;28;20519;-84
2021/12/08 06:49:27;;;;;;;5.60;5.10;;;-0.30;99.90;;;;;;5029574;28;20499;-83
2021/12/08 06:52:00;;;;;;;8.10;4.37;;;-0.20;99.90;;;;;;5031637;28;20467;-83
2021/12/08 06:54:30;;;;;;;3.70;3.40;;;0.00;99.90;;;;;;5033066;28;20495;-83
2021/12/08 06:57:02;;;;;;;10.10;6.70;;;0.10;99.90;;;;;;5031721;28;20484;-84
2021/12/08 06:59:34;;;;;;;8.97;7.63;;;0.30;99.90;;;;;;5026810;28;20497;-83
2021/12/08 07:02:17;;;;;;;6.30;5.50;;;0.40;99.90;;;;;;5033089;28;20462;-84
2021/12/08 07:04:56;;;;;;;10.80;9.70;;;0.30;99.90;;;;;;5031691;28;20993;-84
2021/12/08 07:07:27;;;;;;;8.60;7.80;;;-0.70;99.90;;;;;;5031770;28;20480;-84
2021/12/08 07:09:56;;;;;;;6.57;5.70;;;-0.90;99.90;;;;;;5025411;28;20493;-84
2021/12/08 07:12:29;;;;;;;6.93;5.67;;;-0.90;99.90;;;;;;5027678;28;20476;-83
2021/12/08 07:14:59;;;;;;;6.80;5.27;;;-0.80;99.90;;;;;;5025448;28;20492;-84
2021/12/08 07:17:29;;;;;;;7.90;6.97;;;-0.60;99.90;;;;;;5032415;28;20466;-83
2021/12/08 07:20:14;;;;;;;9.83;6.80;;;-0.30;99.90;;;;;;5029952;28;20457;-84
2021/12/08 07:22:44;;;;;;;9.50;7.70;;;-0.60;99.90;;;;;;5031663;28;20513;-84
2021/12/08 07:25:12;;;;;;;7.60;6.77;;;-0.40;99.90;;;;;;5032963;28;20579;-84
2021/12/08 07:27:41;;;;;;;5.47;4.97;;;-1.00;99.90;;;;;;5033858;28;20455;-84
2021/12/08 07:30:14;;;;;;;8.93;7.27;;;-1.00;99.90;;;;;;5033784;28;20502;-84
2021/12/08 07:32:42;;;;;;;10.87;7.43;;;-0.70;99.90;;;;;;5031164;28;20936;-84
2021/12/08 07:35:13;;;;;;;8.20;6.90;;;-0.50;99.90;;;;;;5024707;28;20463;-84
2021/12/08 07:37:40;;;;;;;9.00;7.17;;;-0.30;99.90;;;;;;5030996;28;20605;-84
2021/12/08 07:40:12;;;;;;;7.00;6.30;;;-0.50;99.90;;;;;;5025741;28;20499;-84
2021/12/08 07:42:47;;;;;;;7.00;5.50;;;-0.90;99.90;;;;;;5029374;28;20886;-83
2021/12/08 07:45:17;;;;;;;4.30;3.90;;;-0.70;99.90;;;;;;5031622;28;20979;-83
2021/12/08 07:47:47;;;;;;;3.50;3.20;;;-1.10;99.90;;;;;;5027946;28;20450;-83
2021/12/08 07:50:19;;;;;;;4.10;3.70;;;-0.60;99.90;;;;;;5032942;28;20929;-83
2021/12/08 07:52:50;;;;;;;5.83;5.27;;;-0.30;99.90;;;;;;5026167;28;20479;-84
2021/12/08 07:55:19;;;;;;;7.10;6.33;;;0.00;99.90;;;;;;5031819;28;20488;-83
2021/12/08 07:57:49;;;;;;;7.50;6.23;;;0.20;99.90;;;;;;5031491;28;20466;-84
2021/12/08 08:00:20;;;;;;;7.50;6.20;;;0.30;99.90;;;;;;5031518;28;20505;-84
2021/12/08 08:02:47;;;;;;;6.80;6.10;;;0.40;99.90;;;;;;5031663;28;20531;-83
2021/12/08 08:05:16;;;;;;;9.00;6.70;;;0.50;99.90;;;;;;5032133;28;20473;-84
2021/12/08 08:07:44;;;;;;;6.33;5.10;;;0.60;99.90;;;;;;5029182;28;20489;-84
2021/12/08 08:10:15;;;;;;;8.97;6.83;;;0.70;99.90;;;;;;5029684;28;20504;-84
2021/12/08 08:12:44;;;;;;;7.37;6.67;;;0.80;99.90;;;;;;5030971;28;20952;-84
2021/12/08 08:15:20;;;;;;;9.40;8.10;;;0.80;99.90;;;;;;5029769;28;20474;-83
2021/12/08 08:17:49;;;;;;;12.80;8.00;;;0.90;99.90;;;;;;5022326;28;20441;-83
2021/12/08 08:20:19;;;;;;;8.37;7.53;;;0.80;99.90;;;;;;5027823;28;20466;-83
2021/12/08 08:22:47;;;;;;;7.13;6.43;;;0.40;99.90;;;;;;5031991;28;20481;-83
2021/12/08 08:25:17;;;;;;;6.57;5.80;;;0.30;99.90;;;;;;5030735;28;20473;-84
2021/12/08 08:27:44;;;;;;;7.00;6.40;;;0.50;99.90;;;;;;5035685;28;20551;-83
2021/12/08 08:30:19;;;;;;;16.17;13.67;;;0.60;99.90;;;;;;5034961;28;20472;-82
2021/12/08 08:32:50;;;;;;;16.93;15.17;;;0.80;99.90;;;;;;5035361;28;20439;-83
2021/12/08 08:35:20;;;;;;;24.07;19.90;;;0.80;99.90;;;;;;5032833;28;21073;-83
2021/12/08 08:37:48;;;;;;;21.07;17.00;;;0.90;99.90;;;;;;5034282;28;20472;-83
2021/12/08 08:40:19;;;;;;;18.53;14.17;;;1.00;99.90;;;;;;5031466;28;21004;-83
2021/12/08 08:42:47;;;;;;;11.07;9.90;;;1.00;99.90;;;;;;5031897;28;20506;-83
2021/12/08 08:45:20;;;;;;;9.33;8.43;;;1.00;99.90;;;;;;5033628;28;20506;-83
2021/12/08 08:47:49;;;;;;;10.77;8.37;;;1.00;99.90;;;;;;5028631;28;20510;-83
2021/12/08 08:50:20;;;;;;;12.07;10.83;;;1.10;99.90;;;;;;5033966;28;20493;-83
2021/12/08 08:52:52;;;;;;;12.23;10.77;;;1.00;99.90;;;;;;5033880;28;20519;-83
2021/12/08 08:55:25;;;;;;;13.53;12.13;;;1.10;99.90;;;;;;5032777;28;20530;-83
2021/12/08 08:57:52;;;;;;;11.90;10.70;;;1.10;99.90;;;;;;5032817;28;20466;-83
2021/12/08 09:00:26;;;;;;;13.00;11.53;;;1.20;99.90;;;;;;5034899;28;20737;-84
2021/12/08 09:02:54;;;;;;;13.07;11.70;;;1.30;99.90;;;;;;5034216;28;20491;-83
2021/12/08 09:05:26;;;;;;;12.80;11.53;;;1.30;99.90;;;;;;5035190;28;20469;-84
2021/12/08 09:07:55;;;;;;;13.30;12.10;;;1.40;99.90;;;;;;5033954;28;20511;-83
2021/12/08 09:10:27;;;;;;;15.60;13.43;;;1.20;99.90;;;;;;5035475;28;20442;-84
2021/12/08 09:12:57;;;;;;;13.50;10.43;;;0.40;99.90;;;;;;5032948;28;20733;-83
2021/12/08 09:15:32;;;;;;;8.00;7.00;;;-0.30;99.90;;;;;;5034976;28;20779;-83
2021/12/08 09:18:04;;;;;;;5.20;2.77;;;-0.50;99.90;;;;;;5032456;28;20510;-83
2021/12/08 09:20:39;;;;;;;2.27;2.07;;;-0.60;99.90;;;;;;5034640;28;20481;-83
2021/12/08 09:23:12;;;;;;;14.40;13.00;;;-0.40;99.90;;;;;;5036225;28;20875;-84
2021/12/08 09:25:43;;;;;;;14.90;11.97;;;0.10;99.90;;;;;;5036559;28;20532;-84
2021/12/08 09:28:14;;;;;;;11.20;10.10;;;0.50;99.90;;;;;;5035196;28;20482;-83
2021/12/08 09:30:47;;;;;;;12.77;11.00;;;0.90;99.90;;;;;;5032906;28;20866;-83
2021/12/08 09:33:19;;;;;;;13.93;10.97;;;0.80;99.90;;;;;;5033348;28;20433;-84
2021/12/08 09:35:53;;;;;;;14.97;11.03;;;-0.40;99.90;;;;;;5032886;28;20456;-84
2021/12/08 09:38:27;;;;;;;11.27;10.17;;;-0.90;99.90;;;;;;5031183;28;20490;-83
2021/12/08 09:41:00;;;;;;;13.43;11.50;;;-1.10;99.90;;;;;;5034705;28;20476;-83
2021/12/08 09:43:33;;;;;;;12.10;8.80;;;-0.80;99.90;;;;;;5032560;28;21410;-83
2021/12/08 09:46:06;;;;;;;7.70;7.00;;;-0.60;99.90;;;;;;5033900;28;20541;-83
2021/12/08 09:48:34;;;;;;;9.17;6.70;;;-0.60;99.90;;;;;;5033377;28;20487;-84
2021/12/08 09:51:01;;;;;;;10.00;9.10;;;-0.40;99.90;;;;;;5033586;28;20486;-84
2021/12/08 09:53:28;;;;;;;8.60;7.80;;;0.10;99.90;;;;;;5033641;28;20470;-83
2021/12/08 09:55:56;;;;;;;10.27;9.23;;;0.50;99.90;;;;;;5039671;28;20440;-84
2021/12/08 09:58:23;;;;;;;17.50;12.10;;;0.80;99.90;;;;;;5035131;28;20489;-83
2021/12/08 10:00:55;;;;;;;14.97;13.53;;;1.00;99.90;;;;;;5035763;28;20473;-85
2021/12/08 10:03:23;;;;;;;13.33;12.17;;;1.20;99.90;;;;;;5029308;28;20450;-84
2021/12/08 10:05:51;;;;;;;13.07;8.73;;;1.30;99.90;;;;;;5034776;28;20965;-84
2021/12/08 10:08:19;;;;;;;9.30;8.30;;;1.40;99.90;;;;;;5032153;28;20487;-84
2021/12/08 10:10:47;;;;;;;9.27;6.40;;;1.40;99.90;;;;;;5034174;28;20996;-84
2021/12/08 10:13:15;;;;;;;11.70;6.67;;;1.30;99.90;;;;;;5032016;28;20514;-84
2021/12/08 10:15:43;;;;;;;7.87;6.80;;;1.40;99.90;;;;;;5041072;28;20451;-84
2021/12/08 10:18:11;;;;;;;11.90;8.83;;;1.40;99.90;;;;;;5032468;28;20435;-83
2021/12/08 10:20:41;;;;;;;15.00;9.00;;;1.40;99.90;;;;;;5029427;28;20477;-83
2021/12/08 10:23:12;;;;;;;8.77;7.83;;;1.40;99.90;;;;;;5031251;28;20508;-84
2021/12/08 10:25:44;;;;;;;9.30;8.30;;;0.90;99.90;;;;;;5029027;28;20478;-83
2021/12/08 10:28:14;;;;;;;10.93;8.93;;;0.80;99.90;;;;;;5030667;28;20523;-84
2021/12/08 10:30:46;;;;;;;11.87;10.33;;;0.80;99.90;;;;;;5027478;28;20954;-83
2021/12/08 10:33:45;;;;;;;29.30;20.23;;;0.90;99.90;;;;;;5029900;28;21492;-83
2021/12/08 10:36:33;;;;;;;11.73;10.53;;;0.90;99.90;;;;;;5028326;28;20453;-83
2021/12/08 10:39:03;;;;;;;10.30;8.90;;;1.00;99.90;;;;;;5027340;28;20465;-84
2021/12/08 10:41:48;;;;;;;15.20;11.50;;;1.10;99.90;;;;;;5030395;28;20453;-83
2021/12/08 10:44:16;;;;;;;11.10;9.90;;;1.10;99.90;;;;;;5031575;28;20817;-83
2021/12/08 10:46:43;;;;;;;11.30;10.17;;;1.10;99.90;;;;;;5028066;28;20568;-83
2021/12/08 10:49:19;;;;;;;16.00;13.30;;;1.10;99.90;;;;;;5030674;28;20474;-83
2021/12/08 10:54:35;;;;;;;17.70;15.27;;;0.70;99.90;;;;;;5032321;28;20433;-83
2021/12/08 10:57:04;;;;;;;14.17;11.60;;;0.90;99.90;;;;;;5034434;28;20481;-83
2021/12/08 10:59:54;;;;;;;17.23;13.93;;;0.90;99.90;;;;;;5029926;28;20501;-82
2021/12/08 11:02:39;;;;;;;21.03;19.00;;;0.30;99.90;;;;;;5029613;28;20466;-84
2021/12/08 11:05:08;;;;;;;17.80;15.90;;;0.10;99.90;;;;;;5038274;28;20541;-83
2021/12/08 11:07:36;;;;;;;19.90;15.83;;;0.00;99.90;;;;;;5034610;28;20503;-83
2021/12/08 11:10:18;;;;;;;11.53;10.37;;;0.30;99.90;;;;;;5026048;28;20500;-84
2021/12/08 11:12:45;;;;;;;9.30;7.30;;;0.50;99.90;;;;;;5027589;28;20437;-84
2021/12/08 11:15:20;;;;;;;9.80;8.20;;;0.60;99.90;;;;;;5034168;28;20503;-84
2021/12/08 11:17:48;;;;;;;14.10;11.80;;;0.70;99.90;;;;;;5032321;28;20503;-84
2021/12/08 11:20:17;;;;;;;12.07;9.70;;;0.80;99.90;;;;;;5031672;28;20465;-84
2021/12/08 11:22:58;;;;;;;14.43;13.03;;;0.90;99.90;;;;;;5029015;28;21072;-83
2021/12/08 11:25:33;;;;;;;10.93;9.80;;;0.80;99.90;;;;;;5031608;28;20448;-84
2021/12/08 11:28:22;;;;;;;17.93;14.90;;;-0.20;99.90;;;;;;5024226;28;20985;-84
2021/12/08 11:30:51;;;;;;;13.20;11.60;;;-0.30;99.90;;;;;;5027804;28;20503;-84
2021/12/08 11:33:22;;;;;;;15.90;14.20;;;-0.10;99.90;;;;;;5030775;28;20482;-85
2021/12/08 11:35:50;;;;;;;12.13;10.80;;;0.10;99.90;;;;;;5030579;28;20786;-84
2021/12/08 11:38:27;;;;;;;12.10;10.80;;;0.40;99.90;;;;;;5028841;28;20514;-83
2021/12/08 11:40:54;;;;;;;25.97;23.30;;;0.60;99.90;;;;;;5025970;28;20887;-83
2021/12/08 11:43:29;;;;;;;11.67;10.67;;;0.60;99.90;;;;;;5027439;28;20540;-82
2021/12/08 11:46:14;;;;;;;8.70;7.80;;;0.80;99.90;;;;;;5030496;28;20448;-83
2021/12/08 11:48:55;;;;;;;8.30;7.60;;;0.90;99.90;;;;;;5028889;28;20505;-83
2021/12/08 11:51:24;;;;;;;10.80;9.40;;;0.90;99.90;;;;;;5028275;28;20833;-83
2021/12/08 11:53:53;;;;;;;17.97;15.53;;;1.00;99.90;;;;;;5025325;28;20888;-83
2021/12/08 11:56:39;;;;;;;13.70;12.50;;;0.90;99.90;;;;;;5062522;22;20952;-55
2021/12/08 11:59:10;;;;;;;13.23;11.87;;;0.90;99.90;;;;;;5045776;28;20483;-56
2021/12/08 12:01:39;;;;;;;13.90;10.23;;;0.90;99.90;;;;;;5048563;28;20450;-55
2021/12/08 12:04:08;;;;;;;9.90;7.37;;;1.00;99.90;;;;;;5031287;28;20840;-55
2021/12/08 12:06:35;;;;;;;8.80;6.87;;;1.10;99.90;;;;;;5035938;28;20477;-55
2021/12/08 12:09:08;;;;;;;9.30;8.40;;;1.10;99.90;;;;;;5064198;22;20509;-78
2021/12/08 12:11:35;;;;;;;10.23;8.77;;;0.40;99.90;;;;;;5054459;28;20445;-78
2021/12/08 12:14:02;;;;;;;11.40;9.97;;;0.20;99.90;;;;;;5050317;28;20901;-78
2021/12/08 12:16:30;;;;;;;15.17;12.07;;;0.30;99.90;;;;;;5037419;28;20497;-78
2021/12/08 12:19:02;;;;;;;13.90;11.80;;;0.40;99.90;;;;;;5035448;28;20477;-78
2021/12/08 12:21:35;;;;;;;12.17;10.90;;;0.50;99.90;;;;;;5033757;28;20870;-78
2021/12/08 12:24:36;;;;;;;12.63;10.73;;;0.70;99.90;;;;;;5031344;28;20469;-78
2021/12/08 12:27:18;;;;;;;12.47;10.00;;;0.60;99.90;;;;;;5023516;28;21010;-78
2021/12/08 12:29:58;;;;;;;8.60;7.17;;;0.50;99.90;;;;;;5026830;28;20976;-78
2021/12/08 12:32:29;;;;;;;7.83;6.80;;;0.50;99.90;;;;;;5033541;28;20478;-77
2021/12/08 12:35:10;;;;;;;11.37;9.20;;;0.70;99.90;;;;;;5031615;28;20507;-78
2021/12/08 12:37:39;;;;;;;13.87;11.67;;;0.80;99.90;;;;;;5032094;28;20469;-78
2021/12/08 12:40:09;;;;;;;16.03;14.23;;;0.90;99.90;;;;;;5032680;28;21019;-77
2021/12/08 12:42:50;;;;;;;16.30;13.20;;;1.00;99.90;;;;;;5026080;28;20453;-78
2021/12/08 12:45:18;;;;;;;17.63;11.83;;;1.10;99.90;;;;;;5034303;28;20495;-78
2021/12/08 12:48:07;;;;;;;9.40;8.40;;;1.10;99.90;;;;;;5033045;28;20521;-78
2021/12/08 12:50:57;;;;;;;9.70;8.70;;;0.70;99.90;;;;;;5030838;28;20454;-78
2021/12/08 12:53:45;;;;;;;7.73;5.50;;;0.80;99.90;;;;;;5032318;28;20487;-78
2021/12/08 12:56:15;;;;;;;6.47;5.20;;;0.70;99.90;;;;;;5025583;28;20995;-78
2021/12/08 12:58:47;;;;;;;7.10;5.13;;;0.70;99.90;;;;;;5030806;28;20478;-78
2021/12/08 13:01:16;;;;;;;6.07;5.37;;;0.90;99.90;;;;;;5031089;28;20487;-78
2021/12/08 13:03:50;;;;;;;11.90;9.60;;;1.00;99.90;;;;;;5034899;28;20443;-78
2021/12/08 13:06:33;;;;;;;15.57;10.13;;;1.10;99.90;;;;;;5031416;28;20473;-78
2021/12/08 13:09:00;;;;;;;12.73;9.40;;;1.10;99.90;;;;;;5023844;28;21087;-78
2021/12/08 13:11:45;;;;;;;18.00;15.87;;;1.20;99.90;;;;;;5030755;28;20871;-77
2021/12/08 13:14:26;;;;;;;10.23;9.23;;;1.10;99.90;;;;;;5031253;28;20466;-78
2021/12/08 13:17:12;;;;;;;8.37;7.63;;;0.60;99.90;;;;;;5025625;28;21034;-78
2021/12/08 13:19:42;;;;;;;11.20;8.30;;;0.40;99.90;;;;;;5031244;28;20902;-78
2021/12/08 13:22:09;;;;;;;11.90;9.87;;;0.70;99.90;;;;;;5028771;28;20962;-78
2021/12/08 13:24:41;;;;;;;11.77;10.67;;;0.80;99.90;;;;;;5026850;28;20479;-78
2021/12/08 13:27:11;;;;;;;13.03;10.97;;;0.90;99.90;;;;;;5033204;28;20455;-78
2021/12/08 13:29:45;;;;;;;17.33;14.90;;;0.70;99.90;;;;;;5034789;28;20485;-78
2021/12/08 13:32:15;;;;;;;16.20;14.50;;;0.70;99.90;;;;;;5030243;28;20455;-78
2021/12/08 13:34:44;;;;;;;12.63;11.23;;;0.80;99.90;;;;;;5029357;28;20830;-78